sensor_id;sensor_type;location;lat;lon;timestamp;temperature;humidity
4757;DHT22;2392;52.578;13.426;2022-08-11T00:01:51;21.50;79.40
4757;DHT22;2392;52.578;13.426;2022-08-11T00:04:20;21.50;79.70
4757;DHT22;2392;52.578;13.426;2022-08-11T00:06:50;21.40;79.80
4757;DHT22;2392;52.578;13.426;2022-08-11T00:09:20;21.40;80.00
4757;DHT22;2392;52.578;13.426;2022-08-11T00:11:51;21.40;80.20
4757;DHT22;2392;52.578;13.426;2022-08-11T00:14:20;21.30;80.40
4757;DHT22;2392;52.578;13.426;2022-08-11T00:16:55;21.30;80.60
4757;DHT22;2392;52.578;13.426;2022-08-11T00:19:25;21.20;80.80
4757;DHT22;2392;52.578;13.426;2022-08-11T00:21:53;21.20;81.00
4757;DHT22;2392;52.578;13.426;2022-08-11T00:24:21;21.20;81.20
4757;DHT22;2392;52.578;13.426;2022-08-11T00:26:52;21.20;81.50
4757;DHT22;2392;52.578;13.426;2022-08-11T00:29:20;21.20;81.70
4757;DHT22;2392;52.578;13.426;2022-08-11T00:31:49;21.10;81.60
4757;DHT22;2392;52.578;13.426;2022-08-11T00:34:19;21.10;81.90
4757;DHT22;2392;52.578;13.426;2022-08-11T00:36:50;21.10;82.00
4757;DHT22;2392;52.578;13.426;2022-08-11T00:39:20;21.10;82.10
4757;DHT22;2392;52.578;13.426;2022-08-11T00:42:03;21.10;82.20
4757;DHT22;2392;52.578;13.426;2022-08-11T00:44:41;21.00;82.20
4757;DHT22;2392;52.578;13.426;2022-08-11T00:47:16;21.00;82.50
4757;DHT22;2392;52.578;13.426;2022-08-11T00:50:03;21.00;82.60
4757;DHT22;2392;52.578;13.426;2022-08-11T00:52:46;20.90;82.60
4757;DHT22;2392;52.578;13.426;2022-08-11T00:55:38;20.90;82.80
4757;DHT22;2392;52.578;13.426;2022-08-11T01:01:25;20.80;83.00
4757;DHT22;2392;52.578;13.426;2022-08-11T01:04:16;20.80;83.20
4757;DHT22;2392;52.578;13.426;2022-08-11T01:06:52;20.70;83.30
4757;DHT22;2392;52.578;13.426;2022-08-11T01:09:34;20.70;83.50
4757;DHT22;2392;52.578;13.426;2022-08-11T01:12:30;20.70;83.70
4757;DHT22;2392;52.578;13.426;2022-08-11T01:18:59;20.60;84.20
4757;DHT22;2392;52.578;13.426;2022-08-11T01:28:06;20.40;84.80
4757;DHT22;2392;52.578;13.426;2022-08-11T01:37:11;20.20;85.40
4757;DHT22;2392;52.578;13.426;2022-08-11T01:40:19;20.20;85.50
4757;DHT22;2392;52.578;13.426;2022-08-11T01:43:17;20.10;85.30
4757;DHT22;2392;52.578;13.426;2022-08-11T01:46:06;20.00;85.20
4757;DHT22;2392;52.578;13.426;2022-08-11T01:48:43;20.00;85.30
4757;DHT22;2392;52.578;13.426;2022-08-11T01:51:16;20.00;85.30
4757;DHT22;2392;52.578;13.426;2022-08-11T01:53:53;19.90;85.30
4757;DHT22;2392;52.578;13.426;2022-08-11T01:56:32;19.90;85.40
4757;DHT22;2392;52.578;13.426;2022-08-11T01:59:10;19.90;86.10
4757;DHT22;2392;52.578;13.426;2022-08-11T02:01:57;19.80;85.40
4757;DHT22;2392;52.578;13.426;2022-08-11T02:04:32;19.80;85.60
4757;DHT22;2392;52.578;13.426;2022-08-11T02:07:09;19.70;85.80
4757;DHT22;2392;52.578;13.426;2022-08-11T02:09:59;19.70;86.00
4757;DHT22;2392;52.578;13.426;2022-08-11T02:12:52;19.60;86.00
4757;DHT22;2392;52.578;13.426;2022-08-11T02:15:25;19.60;86.20
4757;DHT22;2392;52.578;13.426;2022-08-11T02:18:03;19.60;86.30
4757;DHT22;2392;52.578;13.426;2022-08-11T02:20:35;19.60;86.30
4757;DHT22;2392;52.578;13.426;2022-08-11T02:23:27;19.60;86.30
4757;DHT22;2392;52.578;13.426;2022-08-11T02:26:13;19.60;86.40
4757;DHT22;2392;52.578;13.426;2022-08-11T02:28:51;19.50;86.70
4757;DHT22;2392;52.578;13.426;2022-08-11T02:31:26;19.40;87.00
4757;DHT22;2392;52.578;13.426;2022-08-11T02:34:27;19.30;87.20
4757;DHT22;2392;52.578;13.426;2022-08-11T02:37:02;19.30;87.50
4757;DHT22;2392;52.578;13.426;2022-08-11T02:39:50;19.20;87.70
4757;DHT22;2392;52.578;13.426;2022-08-11T02:42:30;19.10;87.90
4757;DHT22;2392;52.578;13.426;2022-08-11T02:45:27;19.10;88.20
4757;DHT22;2392;52.578;13.426;2022-08-11T02:48:00;19.00;88.30
4757;DHT22;2392;52.578;13.426;2022-08-11T02:51:03;19.00;88.50
4757;DHT22;2392;52.578;13.426;2022-08-11T02:53:38;18.90;88.80
4757;DHT22;2392;52.578;13.426;2022-08-11T02:56:13;19.00;88.90
4757;DHT22;2392;52.578;13.426;2022-08-11T02:58:55;18.90;88.90
4757;DHT22;2392;52.578;13.426;2022-08-11T03:01:47;18.90;89.00
4757;DHT22;2392;52.578;13.426;2022-08-11T03:04:21;18.90;89.10
4757;DHT22;2392;52.578;13.426;2022-08-11T03:06:58;18.90;89.10
4757;DHT22;2392;52.578;13.426;2022-08-11T03:09:41;18.90;89.20
4757;DHT22;2392;52.578;13.426;2022-08-11T03:12:15;18.90;89.40
4757;DHT22;2392;52.578;13.426;2022-08-11T03:15:08;18.80;89.60
4757;DHT22;2392;52.578;13.426;2022-08-11T03:18:02;18.80;89.70
4757;DHT22;2392;52.578;13.426;2022-08-11T03:20:38;18.70;90.00
4757;DHT22;2392;52.578;13.426;2022-08-11T03:23:13;18.70;90.00
4757;DHT22;2392;52.578;13.426;2022-08-11T03:25:50;18.70;90.10
4757;DHT22;2392;52.578;13.426;2022-08-11T03:28:26;18.60;90.20
4757;DHT22;2392;52.578;13.426;2022-08-11T03:31:07;18.60;90.30
4757;DHT22;2392;52.578;13.426;2022-08-11T03:33:40;18.60;90.30
4757;DHT22;2392;52.578;13.426;2022-08-11T03:37:05;18.60;90.40
4757;DHT22;2392;52.578;13.426;2022-08-11T03:39:46;18.60;90.30
4757;DHT22;2392;52.578;13.426;2022-08-11T03:42:22;18.70;90.60
4757;DHT22;2392;52.578;13.426;2022-08-11T03:45:00;18.60;90.40
4757;DHT22;2392;52.578;13.426;2022-08-11T03:48:10;18.60;90.40
4757;DHT22;2392;52.578;13.426;2022-08-11T03:51:05;18.50;90.50
4757;DHT22;2392;52.578;13.426;2022-08-11T03:54:00;18.50;90.60
4757;DHT22;2392;52.578;13.426;2022-08-11T03:57:03;18.50;90.70
4757;DHT22;2392;52.578;13.426;2022-08-11T04:00:10;18.40;90.70
4757;DHT22;2392;52.578;13.426;2022-08-11T04:03:14;18.40;90.80
4757;DHT22;2392;52.578;13.426;2022-08-11T04:06:30;18.30;90.90
4757;DHT22;2392;52.578;13.426;2022-08-11T04:09:46;18.30;91.10
4757;DHT22;2392;52.578;13.426;2022-08-11T04:12:45;18.30;91.10
4757;DHT22;2392;52.578;13.426;2022-08-11T04:18:53;18.30;91.30
4757;DHT22;2392;52.578;13.426;2022-08-11T04:22:04;18.30;91.30
4757;DHT22;2392;52.578;13.426;2022-08-11T04:28:10;18.40;91.20
4757;DHT22;2392;52.578;13.426;2022-08-11T04:30:57;18.40;91.10
4757;DHT22;2392;52.578;13.426;2022-08-11T04:36:37;18.50;91.20
4757;DHT22;2392;52.578;13.426;2022-08-11T04:39:41;18.50;91.20
4757;DHT22;2392;52.578;13.426;2022-08-11T04:45:55;18.50;91.30
4757;DHT22;2392;52.578;13.426;2022-08-11T04:48:57;18.50;91.30
4757;DHT22;2392;52.578;13.426;2022-08-11T04:52:05;18.50;91.40
4757;DHT22;2392;52.578;13.426;2022-08-11T04:55:01;18.50;91.40
4757;DHT22;2392;52.578;13.426;2022-08-11T04:58:02;18.50;91.40
4757;DHT22;2392;52.578;13.426;2022-08-11T05:01:05;18.60;91.40
4757;DHT22;2392;52.578;13.426;2022-08-11T05:04:29;18.50;91.30
4757;DHT22;2392;52.578;13.426;2022-08-11T05:07:41;18.50;91.50
4757;DHT22;2392;52.578;13.426;2022-08-11T05:10:22;18.50;91.50
4757;DHT22;2392;52.578;13.426;2022-08-11T05:12:55;18.60;91.60
4757;DHT22;2392;52.578;13.426;2022-08-11T05:15:48;18.60;91.70
4757;DHT22;2392;52.578;13.426;2022-08-11T05:18:35;18.60;91.70
4757;DHT22;2392;52.578;13.426;2022-08-11T05:21:28;18.70;91.70
4757;DHT22;2392;52.578;13.426;2022-08-11T05:24:23;18.80;91.80
4757;DHT22;2392;52.578;13.426;2022-08-11T05:27:10;18.80;91.80
4757;DHT22;2392;52.578;13.426;2022-08-11T05:30:00;18.80;91.80
4757;DHT22;2392;52.578;13.426;2022-08-11T05:32:55;18.90;91.80
4757;DHT22;2392;52.578;13.426;2022-08-11T05:35:43;19.00;91.90
4757;DHT22;2392;52.578;13.426;2022-08-11T05:38:15;19.00;91.80
4757;DHT22;2392;52.578;13.426;2022-08-11T05:41:03;19.10;91.90
4757;DHT22;2392;52.578;13.426;2022-08-11T05:43:48;19.10;91.90
4757;DHT22;2392;52.578;13.426;2022-08-11T05:46:39;19.20;91.90
4757;DHT22;2392;52.578;13.426;2022-08-11T05:49:30;19.20;91.90
4757;DHT22;2392;52.578;13.426;2022-08-11T05:52:16;19.30;91.90
4757;DHT22;2392;52.578;13.426;2022-08-11T05:55:02;19.20;91.90
4757;DHT22;2392;52.578;13.426;2022-08-11T05:57:54;19.20;92.40
4757;DHT22;2392;52.578;13.426;2022-08-11T06:00:22;19.20;92.20
4757;DHT22;2392;52.578;13.426;2022-08-11T06:02:52;19.20;92.30
4757;DHT22;2392;52.578;13.426;2022-08-11T06:05:31;19.30;92.40
4757;DHT22;2392;52.578;13.426;2022-08-11T06:07:59;19.30;92.50
4757;DHT22;2392;52.578;13.426;2022-08-11T06:10:28;19.40;92.60
4757;DHT22;2392;52.578;13.426;2022-08-11T06:13:00;19.40;92.70
4757;DHT22;2392;52.578;13.426;2022-08-11T06:15:28;19.50;92.70
4757;DHT22;2392;52.578;13.426;2022-08-11T06:17:56;19.50;92.70
4757;DHT22;2392;52.578;13.426;2022-08-11T06:20:25;19.60;92.70
4757;DHT22;2392;52.578;13.426;2022-08-11T06:23:03;19.60;92.80
4757;DHT22;2392;52.578;13.426;2022-08-11T06:25:31;19.70;92.60
4757;DHT22;2392;52.578;13.426;2022-08-11T06:28:02;19.80;92.50
4757;DHT22;2392;52.578;13.426;2022-08-11T06:30:34;19.90;92.10
4757;DHT22;2392;52.578;13.426;2022-08-11T06:33:07;20.00;92.10
4757;DHT22;2392;52.578;13.426;2022-08-11T06:35:43;20.10;92.00
4757;DHT22;2392;52.578;13.426;2022-08-11T06:38:14;20.20;92.10
4757;DHT22;2392;52.578;13.426;2022-08-11T06:40:52;20.20;91.90
4757;DHT22;2392;52.578;13.426;2022-08-11T06:43:46;20.40;91.90
4757;DHT22;2392;52.578;13.426;2022-08-11T06:46:16;20.50;91.90
4757;DHT22;2392;52.578;13.426;2022-08-11T06:48:44;20.60;91.50
4757;DHT22;2392;52.578;13.426;2022-08-11T06:51:11;20.70;91.00
4757;DHT22;2392;52.578;13.426;2022-08-11T06:53:41;20.80;90.90
4757;DHT22;2392;52.578;13.426;2022-08-11T06:56:09;20.90;90.60
4757;DHT22;2392;52.578;13.426;2022-08-11T06:58:56;21.00;90.70
4757;DHT22;2392;52.578;13.426;2022-08-11T07:01:47;21.10;90.70
4757;DHT22;2392;52.578;13.426;2022-08-11T07:04:34;21.20;90.00
4757;DHT22;2392;52.578;13.426;2022-08-11T07:07:35;21.30;90.00
4757;DHT22;2392;52.578;13.426;2022-08-11T07:10:32;21.40;90.20
4757;DHT22;2392;52.578;13.426;2022-08-11T07:13:26;21.40;88.70
4757;DHT22;2392;52.578;13.426;2022-08-11T07:16:15;21.50;88.60
4757;DHT22;2392;52.578;13.426;2022-08-11T07:18:46;21.60;89.30
4757;DHT22;2392;52.578;13.426;2022-08-11T07:21:34;21.70;88.50
4757;DHT22;2392;52.578;13.426;2022-08-11T07:24:23;21.80;88.00
4757;DHT22;2392;52.578;13.426;2022-08-11T07:27:11;21.80;87.40
4757;DHT22;2392;52.578;13.426;2022-08-11T07:30:00;21.90;87.50
4757;DHT22;2392;52.578;13.426;2022-08-11T07:32:31;22.00;87.90
4757;DHT22;2392;52.578;13.426;2022-08-11T07:35:09;22.10;88.00
4757;DHT22;2392;52.578;13.426;2022-08-11T07:37:40;22.20;88.00
4757;DHT22;2392;52.578;13.426;2022-08-11T07:40:09;22.20;87.80
4757;DHT22;2392;52.578;13.426;2022-08-11T07:42:37;22.30;87.70
4757;DHT22;2392;52.578;13.426;2022-08-11T07:45:07;22.40;86.90
4757;DHT22;2392;52.578;13.426;2022-08-11T07:47:54;22.50;86.00
4757;DHT22;2392;52.578;13.426;2022-08-11T07:50:40;22.50;86.00
4757;DHT22;2392;52.578;13.426;2022-08-11T07:53:25;22.60;86.10
4757;DHT22;2392;52.578;13.426;2022-08-11T07:55:54;22.70;86.00
4757;DHT22;2392;52.578;13.426;2022-08-11T07:58:23;22.70;85.80
4757;DHT22;2392;52.578;13.426;2022-08-11T08:01:10;22.80;85.80
4757;DHT22;2392;52.578;13.426;2022-08-11T08:03:58;22.90;85.80
4757;DHT22;2392;52.578;13.426;2022-08-11T08:06:43;23.00;85.40
4757;DHT22;2392;52.578;13.426;2022-08-11T08:09:32;23.10;85.40
4757;DHT22;2392;52.578;13.426;2022-08-11T08:12:19;23.20;85.40
4757;DHT22;2392;52.578;13.426;2022-08-11T08:15:06;23.30;85.30
4757;DHT22;2392;52.578;13.426;2022-08-11T08:17:51;23.40;84.40
4757;DHT22;2392;52.578;13.426;2022-08-11T08:20:25;23.50;83.80
4757;DHT22;2392;52.578;13.426;2022-08-11T08:22:55;23.60;84.40
4757;DHT22;2392;52.578;13.426;2022-08-11T08:25:23;23.70;83.30
4757;DHT22;2392;52.578;13.426;2022-08-11T08:27:53;23.80;83.40
4757;DHT22;2392;52.578;13.426;2022-08-11T08:30:21;23.80;83.80
4757;DHT22;2392;52.578;13.426;2022-08-11T08:33:06;23.90;82.90
4757;DHT22;2392;52.578;13.426;2022-08-11T08:35:36;24.00;82.60
4757;DHT22;2392;52.578;13.426;2022-08-11T08:38:03;24.10;82.00
4757;DHT22;2392;52.578;13.426;2022-08-11T08:40:31;24.20;81.90
4757;DHT22;2392;52.578;13.426;2022-08-11T08:43:02;24.30;81.60
4757;DHT22;2392;52.578;13.426;2022-08-11T08:45:33;24.30;81.10
4757;DHT22;2392;52.578;13.426;2022-08-11T08:48:04;24.40;81.60
4757;DHT22;2392;52.578;13.426;2022-08-11T08:50:41;24.50;81.20
4757;DHT22;2392;52.578;13.426;2022-08-11T08:53:27;24.60;79.80
4757;DHT22;2392;52.578;13.426;2022-08-11T08:55:59;24.70;79.40
4757;DHT22;2392;52.578;13.426;2022-08-11T08:58:26;24.70;79.30
4757;DHT22;2392;52.578;13.426;2022-08-11T09:00:54;24.80;79.30
4757;DHT22;2392;52.578;13.426;2022-08-11T09:03:22;24.90;79.00
4757;DHT22;2392;52.578;13.426;2022-08-11T09:05:54;25.00;77.70
4757;DHT22;2392;52.578;13.426;2022-08-11T09:08:22;25.10;78.10
4757;DHT22;2392;52.578;13.426;2022-08-11T09:10:50;25.20;77.40
4757;DHT22;2392;52.578;13.426;2022-08-11T09:13:32;25.40;77.00
4757;DHT22;2392;52.578;13.426;2022-08-11T09:15:59;25.40;76.40
4757;DHT22;2392;52.578;13.426;2022-08-11T09:18:27;25.50;74.80
4757;DHT22;2392;52.578;13.426;2022-08-11T09:20:57;25.60;75.50
4757;DHT22;2392;52.578;13.426;2022-08-11T09:23:25;25.70;75.30
4757;DHT22;2392;52.578;13.426;2022-08-11T09:26:10;25.80;75.50
4757;DHT22;2392;52.578;13.426;2022-08-11T09:28:57;25.90;74.80
4757;DHT22;2392;52.578;13.426;2022-08-11T09:31:24;26.00;74.30
4757;DHT22;2392;52.578;13.426;2022-08-11T09:33:53;26.10;73.80
4757;DHT22;2392;52.578;13.426;2022-08-11T09:36:22;26.10;73.70
4757;DHT22;2392;52.578;13.426;2022-08-11T09:39:07;26.20;73.40
4757;DHT22;2392;52.578;13.426;2022-08-11T09:41:53;26.30;73.40
4757;DHT22;2392;52.578;13.426;2022-08-11T09:44:21;26.40;73.40
4757;DHT22;2392;52.578;13.426;2022-08-11T09:47:06;26.40;73.10
4757;DHT22;2392;52.578;13.426;2022-08-11T09:49:41;26.60;72.70
4757;DHT22;2392;52.578;13.426;2022-08-11T09:52:10;26.70;72.20
4757;DHT22;2392;52.578;13.426;2022-08-11T09:54:39;26.80;72.20
4757;DHT22;2392;52.578;13.426;2022-08-11T09:57:06;26.90;72.50
4757;DHT22;2392;52.578;13.426;2022-08-11T09:59:51;27.10;72.30
4757;DHT22;2392;52.578;13.426;2022-08-11T10:02:23;27.20;70.60
4757;DHT22;2392;52.578;13.426;2022-08-11T10:04:52;27.30;70.40
4757;DHT22;2392;52.578;13.426;2022-08-11T10:07:44;27.40;69.40
4757;DHT22;2392;52.578;13.426;2022-08-11T10:10:16;27.60;69.10
4757;DHT22;2392;52.578;13.426;2022-08-11T10:12:47;27.70;68.40
4757;DHT22;2392;52.578;13.426;2022-08-11T10:15:17;27.80;68.20
4757;DHT22;2392;52.578;13.426;2022-08-11T10:18:03;27.80;67.40
4757;DHT22;2392;52.578;13.426;2022-08-11T10:20:50;28.20;66.70
4757;DHT22;2392;52.578;13.426;2022-08-11T10:23:20;28.70;66.40
4757;DHT22;2392;52.578;13.426;2022-08-11T10:26:06;29.40;65.40
4757;DHT22;2392;52.578;13.426;2022-08-11T10:28:52;30.40;65.00
4757;DHT22;2392;52.578;13.426;2022-08-11T10:31:20;31.50;62.50
4757;DHT22;2392;52.578;13.426;2022-08-11T10:34:07;31.70;60.50
4757;DHT22;2392;52.578;13.426;2022-08-11T10:36:37;31.40;59.30
4757;DHT22;2392;52.578;13.426;2022-08-11T10:39:13;31.00;60.70
4757;DHT22;2392;52.578;13.426;2022-08-11T10:41:43;30.80;61.00
4757;DHT22;2392;52.578;13.426;2022-08-11T10:44:29;31.50;60.50
4757;DHT22;2392;52.578;13.426;2022-08-11T10:46:59;33.00;59.60
4757;DHT22;2392;52.578;13.426;2022-08-11T10:49:44;34.50;57.90
4757;DHT22;2392;52.578;13.426;2022-08-11T10:52:33;36.10;55.40
4757;DHT22;2392;52.578;13.426;2022-08-11T10:55:19;37.70;54.20
4757;DHT22;2392;52.578;13.426;2022-08-11T10:58:04;39.10;50.60
4757;DHT22;2392;52.578;13.426;2022-08-11T11:00:50;39.90;47.50
4757;DHT22;2392;52.578;13.426;2022-08-11T11:03:21;40.80;46.80
4757;DHT22;2392;52.578;13.426;2022-08-11T11:05:49;41.90;44.90
4757;DHT22;2392;52.578;13.426;2022-08-11T11:08:20;42.60;43.40
4757;DHT22;2392;52.578;13.426;2022-08-11T11:11:12;42.40;42.10
4757;DHT22;2392;52.578;13.426;2022-08-11T11:13:42;41.40;41.90
4757;DHT22;2392;52.578;13.426;2022-08-11T11:16:29;40.20;42.50
4757;DHT22;2392;52.578;13.426;2022-08-11T11:19:29;39.00;43.40
4757;DHT22;2392;52.578;13.426;2022-08-11T11:21:57;37.80;44.40
4757;DHT22;2392;52.578;13.426;2022-08-11T11:24:53;36.90;45.70
4757;DHT22;2392;52.578;13.426;2022-08-11T11:27:31;36.00;46.90
4757;DHT22;2392;52.578;13.426;2022-08-11T11:30:03;35.40;47.70
4757;DHT22;2392;52.578;13.426;2022-08-11T11:32:40;34.90;48.50
4757;DHT22;2392;52.578;13.426;2022-08-11T11:35:24;34.50;48.80
4757;DHT22;2392;52.578;13.426;2022-08-11T11:37:52;34.10;48.60
4757;DHT22;2392;52.578;13.426;2022-08-11T11:40:21;33.70;48.50
4757;DHT22;2392;52.578;13.426;2022-08-11T11:42:53;33.40;50.00
4757;DHT22;2392;52.578;13.426;2022-08-11T11:45:22;33.10;49.90
4757;DHT22;2392;52.578;13.426;2022-08-11T11:47:51;32.80;50.50
4757;DHT22;2392;52.578;13.426;2022-08-11T11:50:24;32.60;51.20
4757;DHT22;2392;52.578;13.426;2022-08-11T11:52:52;32.40;51.50
4757;DHT22;2392;52.578;13.426;2022-08-11T11:55:21;32.10;52.10
4757;DHT22;2392;52.578;13.426;2022-08-11T11:57:51;32.00;52.70
4757;DHT22;2392;52.578;13.426;2022-08-11T12:00:37;31.90;52.70
4757;DHT22;2392;52.578;13.426;2022-08-11T12:03:23;31.80;53.20
4757;DHT22;2392;52.578;13.426;2022-08-11T12:05:51;31.60;52.80
4757;DHT22;2392;52.578;13.426;2022-08-11T12:08:20;31.60;52.40
4757;DHT22;2392;52.578;13.426;2022-08-11T12:10:49;31.50;52.30
4757;DHT22;2392;52.578;13.426;2022-08-11T12:13:39;31.40;52.40
4757;DHT22;2392;52.578;13.426;2022-08-11T12:16:08;31.30;52.50
4757;DHT22;2392;52.578;13.426;2022-08-11T12:18:36;31.20;52.60
4757;DHT22;2392;52.578;13.426;2022-08-11T12:21:04;31.10;52.80
4757;DHT22;2392;52.578;13.426;2022-08-11T12:23:33;31.10;52.80
4757;DHT22;2392;52.578;13.426;2022-08-11T12:26:18;31.10;53.40
4757;DHT22;2392;52.578;13.426;2022-08-11T12:29:06;31.00;53.10
4757;DHT22;2392;52.578;13.426;2022-08-11T12:31:36;30.90;52.70
4757;DHT22;2392;52.578;13.426;2022-08-11T12:34:04;30.90;52.20
4757;DHT22;2392;52.578;13.426;2022-08-11T12:36:40;30.90;52.40
4757;DHT22;2392;52.578;13.426;2022-08-11T12:39:09;30.80;52.80
4757;DHT22;2392;52.578;13.426;2022-08-11T12:41:39;30.80;52.40
4757;DHT22;2392;52.578;13.426;2022-08-11T12:44:27;30.70;52.20
4757;DHT22;2392;52.578;13.426;2022-08-11T12:47:15;30.70;52.40
4757;DHT22;2392;52.578;13.426;2022-08-11T12:49:45;30.70;53.60
4757;DHT22;2392;52.578;13.426;2022-08-11T12:52:35;30.60;53.50
4757;DHT22;2392;52.578;13.426;2022-08-11T12:55:10;30.60;53.80
4757;DHT22;2392;52.578;13.426;2022-08-11T12:57:40;30.60;52.50
4757;DHT22;2392;52.578;13.426;2022-08-11T13:00:27;30.60;52.40
4757;DHT22;2392;52.578;13.426;2022-08-11T13:03:13;30.60;52.60
4757;DHT22;2392;52.578;13.426;2022-08-11T13:06:00;30.60;52.30
4757;DHT22;2392;52.578;13.426;2022-08-11T13:08:30;30.60;51.80
4757;DHT22;2392;52.578;13.426;2022-08-11T13:10:59;30.60;51.40
4757;DHT22;2392;52.578;13.426;2022-08-11T13:13:46;30.60;51.20
4757;DHT22;2392;52.578;13.426;2022-08-11T13:16:16;30.50;51.20
4757;DHT22;2392;52.578;13.426;2022-08-11T13:18:45;30.50;51.80
4757;DHT22;2392;52.578;13.426;2022-08-11T13:21:13;30.50;52.50
4757;DHT22;2392;52.578;13.426;2022-08-11T13:23:41;30.40;52.10
4757;DHT22;2392;52.578;13.426;2022-08-11T13:26:08;30.40;51.90
4757;DHT22;2392;52.578;13.426;2022-08-11T13:28:36;30.40;52.50
4757;DHT22;2392;52.578;13.426;2022-08-11T13:31:05;30.30;52.00
4757;DHT22;2392;52.578;13.426;2022-08-11T13:33:43;30.30;52.30
4757;DHT22;2392;52.578;13.426;2022-08-11T13:36:13;30.30;51.80
4757;DHT22;2392;52.578;13.426;2022-08-11T13:38:42;30.20;51.00
4757;DHT22;2392;52.578;13.426;2022-08-11T13:41:10;30.20;51.00
4757;DHT22;2392;52.578;13.426;2022-08-11T13:43:57;30.20;51.30
4757;DHT22;2392;52.578;13.426;2022-08-11T13:46:26;30.20;51.50
4757;DHT22;2392;52.578;13.426;2022-08-11T13:48:56;30.20;51.60
4757;DHT22;2392;52.578;13.426;2022-08-11T13:51:24;30.20;51.50
4757;DHT22;2392;52.578;13.426;2022-08-11T13:54:02;30.20;51.60
4757;DHT22;2392;52.578;13.426;2022-08-11T13:56:30;30.20;51.90
4757;DHT22;2392;52.578;13.426;2022-08-11T13:58:58;30.20;51.50
4757;DHT22;2392;52.578;13.426;2022-08-11T14:01:29;30.20;51.40
4757;DHT22;2392;52.578;13.426;2022-08-11T14:04:05;30.30;51.20
4757;DHT22;2392;52.578;13.426;2022-08-11T14:06:34;30.30;51.10
4757;DHT22;2392;52.578;13.426;2022-08-11T14:09:03;30.20;50.90
4757;DHT22;2392;52.578;13.426;2022-08-11T14:11:34;30.20;51.10
4757;DHT22;2392;52.578;13.426;2022-08-11T14:14:22;30.20;51.40
4757;DHT22;2392;52.578;13.426;2022-08-11T14:16:53;30.30;51.60
4757;DHT22;2392;52.578;13.426;2022-08-11T14:19:24;30.30;51.10
4757;DHT22;2392;52.578;13.426;2022-08-11T14:21:52;30.30;50.70
4757;DHT22;2392;52.578;13.426;2022-08-11T14:24:37;30.30;50.50
4757;DHT22;2392;52.578;13.426;2022-08-11T14:27:07;30.30;50.80
4757;DHT22;2392;52.578;13.426;2022-08-11T14:29:35;30.30;50.90
4757;DHT22;2392;52.578;13.426;2022-08-11T14:32:05;30.30;50.30
4757;DHT22;2392;52.578;13.426;2022-08-11T14:34:38;30.30;49.70
4757;DHT22;2392;52.578;13.426;2022-08-11T14:37:07;30.30;49.70
4757;DHT22;2392;52.578;13.426;2022-08-11T14:39:40;30.30;50.00
4757;DHT22;2392;52.578;13.426;2022-08-11T14:42:07;30.30;50.20
4757;DHT22;2392;52.578;13.426;2022-08-11T14:44:55;30.40;50.30
4757;DHT22;2392;52.578;13.426;2022-08-11T14:47:46;30.60;50.80
4757;DHT22;2392;52.578;13.426;2022-08-11T14:50:17;30.60;49.60
4757;DHT22;2392;52.578;13.426;2022-08-11T14:52:49;30.70;49.50
4757;DHT22;2392;52.578;13.426;2022-08-11T14:55:17;30.80;49.10
4757;DHT22;2392;52.578;13.426;2022-08-11T14:58:02;30.90;48.80
4757;DHT22;2392;52.578;13.426;2022-08-11T15:00:31;31.00;48.40
4757;DHT22;2392;52.578;13.426;2022-08-11T15:02:59;31.10;48.50
4757;DHT22;2392;52.578;13.426;2022-08-11T15:05:38;31.20;48.80
4757;DHT22;2392;52.578;13.426;2022-08-11T15:08:06;31.20;48.90
4757;DHT22;2392;52.578;13.426;2022-08-11T15:10:33;31.10;48.60
4757;DHT22;2392;52.578;13.426;2022-08-11T15:13:01;31.10;48.90
4757;DHT22;2392;52.578;13.426;2022-08-11T15:15:29;31.10;48.50
4757;DHT22;2392;52.578;13.426;2022-08-11T15:18:14;31.00;48.70
4757;DHT22;2392;52.578;13.426;2022-08-11T15:20:44;31.00;49.20
4757;DHT22;2392;52.578;13.426;2022-08-11T15:23:28;30.90;48.80
4757;DHT22;2392;52.578;13.426;2022-08-11T15:26:16;30.90;48.70
4757;DHT22;2392;52.578;13.426;2022-08-11T15:28:46;30.80;48.70
4757;DHT22;2392;52.578;13.426;2022-08-11T15:31:31;30.70;48.70
4757;DHT22;2392;52.578;13.426;2022-08-11T15:34:18;30.70;48.90
4757;DHT22;2392;52.578;13.426;2022-08-11T15:37:08;30.60;48.00
4757;DHT22;2392;52.578;13.426;2022-08-11T15:39:56;30.50;47.70
4757;DHT22;2392;52.578;13.426;2022-08-11T15:42:46;30.40;47.90
4757;DHT22;2392;52.578;13.426;2022-08-11T15:45:34;30.40;48.60
4757;DHT22;2392;52.578;13.426;2022-08-11T15:48:29;30.30;49.00
4757;DHT22;2392;52.578;13.426;2022-08-11T15:51:06;30.40;49.50
4757;DHT22;2392;52.578;13.426;2022-08-11T15:53:40;30.60;49.30
4757;DHT22;2392;52.578;13.426;2022-08-11T15:56:09;30.60;49.20
4757;DHT22;2392;52.578;13.426;2022-08-11T15:58:40;30.60;48.90
4757;DHT22;2392;52.578;13.426;2022-08-11T16:01:26;30.60;48.60
4757;DHT22;2392;52.578;13.426;2022-08-11T16:04:15;30.50;48.60
4757;DHT22;2392;52.578;13.426;2022-08-11T16:06:54;30.40;48.50
4757;DHT22;2392;52.578;13.426;2022-08-11T16:09:28;30.30;48.60
4757;DHT22;2392;52.578;13.426;2022-08-11T16:11:59;30.30;48.50
4757;DHT22;2392;52.578;13.426;2022-08-11T16:14:28;30.20;48.70
4757;DHT22;2392;52.578;13.426;2022-08-11T16:17:16;30.10;48.70
4757;DHT22;2392;52.578;13.426;2022-08-11T16:19:45;30.00;48.70
4757;DHT22;2392;52.578;13.426;2022-08-11T16:22:16;30.00;48.60
4757;DHT22;2392;52.578;13.426;2022-08-11T16:24:48;29.90;48.50
4757;DHT22;2392;52.578;13.426;2022-08-11T16:27:16;29.80;49.10
4757;DHT22;2392;52.578;13.426;2022-08-11T16:29:45;29.80;48.60
4757;DHT22;2392;52.578;13.426;2022-08-11T16:32:17;29.70;48.90
4757;DHT22;2392;52.578;13.426;2022-08-11T16:34:51;29.70;49.50
4757;DHT22;2392;52.578;13.426;2022-08-11T16:37:37;29.70;49.70
4757;DHT22;2392;52.578;13.426;2022-08-11T16:40:25;29.70;49.60
4757;DHT22;2392;52.578;13.426;2022-08-11T16:42:55;29.60;49.50
4757;DHT22;2392;52.578;13.426;2022-08-11T16:45:41;29.60;49.50
4757;DHT22;2392;52.578;13.426;2022-08-11T16:48:29;29.50;49.20
4757;DHT22;2392;52.578;13.426;2022-08-11T16:50:57;29.50;49.60
4757;DHT22;2392;52.578;13.426;2022-08-11T16:53:27;29.40;49.40
4757;DHT22;2392;52.578;13.426;2022-08-11T16:55:58;29.40;49.90
4757;DHT22;2392;52.578;13.426;2022-08-11T16:58:29;29.40;49.40
4757;DHT22;2392;52.578;13.426;2022-08-11T17:01:15;29.30;49.50
4757;DHT22;2392;52.578;13.426;2022-08-11T17:03:49;29.30;49.60
4757;DHT22;2392;52.578;13.426;2022-08-11T17:06:40;29.30;49.70
4757;DHT22;2392;52.578;13.426;2022-08-11T17:09:29;29.20;49.70
4757;DHT22;2392;52.578;13.426;2022-08-11T17:12:19;29.20;49.70
4757;DHT22;2392;52.578;13.426;2022-08-11T17:15:08;29.10;49.10
4757;DHT22;2392;52.578;13.426;2022-08-11T17:17:57;29.00;48.90
4757;DHT22;2392;52.578;13.426;2022-08-11T17:20:26;29.00;48.80
4757;DHT22;2392;52.578;13.426;2022-08-11T17:22:54;29.00;48.70
4757;DHT22;2392;52.578;13.426;2022-08-11T17:25:39;29.00;48.80
4757;DHT22;2392;52.578;13.426;2022-08-11T17:28:09;28.90;49.00
4757;DHT22;2392;52.578;13.426;2022-08-11T17:30:39;28.90;49.20
4757;DHT22;2392;52.578;13.426;2022-08-11T17:33:25;28.80;49.20